Time;durP1;ratioP1;P1;durP2;ratioP2;P2;SDS_P1;SDS_P2;PMS_P1;PMS_P2;Temp;Humidity;BMP_temperature;BMP_pressure;BME280_temperature;BME280_humidity;BME280_pressure;Samples;Min_cycle;Max_cycle;Signal;HPM_P1;HPM_P2
2022/06/22 00:02:28;;;;;;;2.58;1.23;;;14.90;99.90;;;;;;4952946;28;20352;-90
2022/06/22 00:05:13;;;;;;;1.73;0.95;;;14.90;99.90;;;;;;4954585;28;20617;-91
2022/06/22 00:07:49;;;;;;;2.47;1.30;;;14.90;99.90;;;;;;4947927;29;20528;-90
2022/06/22 00:10:31;;;;;;;1.40;0.98;;;14.90;99.90;;;;;;4953207;28;20174;-90
2022/06/22 00:12:59;;;;;;;1.65;1.02;;;15.00;99.90;;;;;;4952971;28;20201;-90
2022/06/22 00:15:38;;;;;;;2.53;1.40;;;15.00;99.90;;;;;;4952932;28;20260;-91
2022/06/22 00:18:19;;;;;;;5.80;1.42;;;14.90;99.90;;;;;;4952685;28;20188;-90
2022/06/22 00:20:53;;;;;;;1.55;1.10;;;14.90;99.90;;;;;;4953117;28;20168;-90
2022/06/22 00:23:24;;;;;;;3.40;1.30;;;14.80;99.90;;;;;;4953070;29;20192;-89
2022/06/22 00:25:50;;;;;;;2.78;1.20;;;14.70;99.90;;;;;;4952503;28;20208;-90
2022/06/22 00:28:25;;;;;;;1.40;1.20;;;14.70;99.90;;;;;;4952896;28;20189;-89
2022/06/22 00:31:03;;;;;;;3.10;1.05;;;14.50;99.90;;;;;;4955879;28;20173;-89
2022/06/22 00:33:29;;;;;;;2.78;1.40;;;14.50;99.90;;;;;;4957232;29;20201;-90
2022/06/22 00:36:01;;;;;;;2.42;1.00;;;14.40;99.90;;;;;;4956322;28;20224;-90
2022/06/22 00:38:30;;;;;;;3.92;1.20;;;14.30;99.90;;;;;;4956365;29;20263;-90
2022/06/22 00:41:15;;;;;;;2.42;1.20;;;14.10;99.90;;;;;;4956364;28;20181;-90
2022/06/22 00:43:41;;;;;;;2.42;1.02;;;14.10;99.90;;;;;;4956087;28;20220;-90
2022/06/22 00:46:23;;;;;;;2.45;1.08;;;14.00;99.90;;;;;;4956278;28;20295;-90
2022/06/22 00:48:52;;;;;;;3.47;1.23;;;14.00;99.90;;;;;;4955374;28;20701;-89
2022/06/22 00:51:23;;;;;;;1.92;1.10;;;13.90;99.90;;;;;;4956189;28;20219;-90
2022/06/22 00:54:00;;;;;;;3.28;1.40;;;13.80;99.90;;;;;;4955940;28;20296;-91
2022/06/22 00:56:34;;;;;;;5.03;1.30;;;13.70;99.90;;;;;;4936826;29;20696;-90
2022/06/22 00:59:16;;;;;;;2.08;1.15;;;13.70;99.90;;;;;;4936819;29;20622;-89
2022/06/22 01:01:50;;;;;;;2.10;1.10;;;13.80;99.90;;;;;;4936939;29;20174;-90
2022/06/22 01:04:19;;;;;;;1.88;1.00;;;13.70;99.90;;;;;;4936723;29;20182;-90
2022/06/22 01:07:00;;;;;;;3.05;1.25;;;13.60;99.90;;;;;;4936795;29;20201;-90
2022/06/22 01:09:38;;;;;;;3.45;1.10;;;13.60;99.90;;;;;;4936759;29;20200;-90
2022/06/22 01:12:16;;;;;;;2.45;1.10;;;13.80;99.90;;;;;;4937843;29;20166;-90
2022/06/22 01:14:49;;;;;;;3.45;1.20;;;13.90;99.90;;;;;;4936525;29;20201;-90
2022/06/22 01:17:45;;;;;;;2.90;1.10;;;13.90;99.90;;;;;;4937686;29;20170;-90
2022/06/22 01:20:44;;;;;;;4.22;1.13;;;13.80;99.90;;;;;;4939204;29;20188;-90
2022/06/22 01:23:29;;;;;;;3.63;0.95;;;13.60;99.90;;;;;;4955830;29;20188;-90
2022/06/22 01:26:05;;;;;;;3.90;1.10;;;13.60;99.90;;;;;;4955733;28;20201;-90
2022/06/22 01:28:31;;;;;;;2.15;1.35;;;13.70;99.90;;;;;;4955918;28;20181;-90
2022/06/22 01:31:05;;;;;;;2.75;1.10;;;13.70;99.90;;;;;;4955606;28;20169;-90
2022/06/22 01:33:37;;;;;;;4.35;1.05;;;13.50;99.90;;;;;;4955205;28;20201;-90
2022/06/22 01:36:20;;;;;;;2.85;1.10;;;13.50;99.90;;;;;;4955058;28;20193;-90
2022/06/22 01:38:45;;;;;;;3.42;0.95;;;13.50;99.90;;;;;;4955113;28;20202;-90
2022/06/22 01:41:32;;;;;;;1.92;0.93;;;13.50;99.90;;;;;;4955761;28;20216;-90
2022/06/22 01:44:08;;;;;;;1.48;1.13;;;13.60;99.90;;;;;;4954971;29;20209;-90
2022/06/22 01:47:08;;;;;;;1.42;1.08;;;13.50;99.90;;;;;;4955120;28;20200;-90
2022/06/22 01:49:49;;;;;;;2.33;1.00;;;13.40;99.90;;;;;;4941920;29;20228;-90
2022/06/22 01:52:58;;;;;;;3.30;1.10;;;13.50;99.90;;;;;;4951947;28;20213;-90
2022/06/22 01:55:56;;;;;;;2.17;1.17;;;13.40;99.90;;;;;;4951981;28;20209;-90
2022/06/22 01:58:57;;;;;;;4.00;1.40;;;13.50;99.90;;;;;;4955957;29;20185;-90
2022/06/22 02:01:37;;;;;;;1.08;0.80;;;13.50;99.90;;;;;;4955808;29;20170;-90
2022/06/22 02:04:38;;;;;;;2.83;1.33;;;13.40;99.90;;;;;;4955354;29;20324;-89
2022/06/22 02:10:28;;;;;;;3.55;1.15;;;13.20;99.90;;;;;;4956816;29;20528;-90
2022/06/22 02:13:17;;;;;;;2.50;1.17;;;13.00;99.90;;;;;;4954852;28;20173;-90
2022/06/22 02:16:34;;;;;;;3.72;1.20;;;12.90;99.90;;;;;;4954510;28;20229;-90
2022/06/22 02:18:59;;;;;;;6.07;1.33;;;13.00;99.90;;;;;;4952350;29;20195;-89
2022/06/22 02:21:52;;;;;;;1.23;1.10;;;12.90;99.90;;;;;;4954725;28;20275;-89
2022/06/22 02:24:49;;;;;;;5.30;1.42;;;12.90;99.90;;;;;;4954683;29;20173;-90
2022/06/22 02:27:19;;;;;;;1.67;1.08;;;12.90;99.90;;;;;;4951594;29;20277;-90
2022/06/22 02:29:52;;;;;;;5.30;1.30;;;12.90;99.90;;;;;;4954571;29;20645;-89
2022/06/22 02:32:24;;;;;;;1.67;1.15;;;13.00;99.90;;;;;;4960591;28;20220;-89
2022/06/22 02:34:53;;;;;;;2.70;1.23;;;13.00;99.90;;;;;;4973254;28;20196;-90
2022/06/22 02:37:22;;;;;;;3.60;1.20;;;13.00;99.90;;;;;;4957488;28;20185;-90
2022/06/22 02:39:52;;;;;;;6.20;1.10;;;13.10;99.90;;;;;;4953935;28;20582;-89
2022/06/22 02:45:05;;;;;;;5.40;1.50;;;12.80;99.90;;;;;;4955417;28;20171;-89
2022/06/22 02:47:51;;;;;;;5.32;1.33;;;12.60;99.90;;;;;;4953538;28;20181;-89
2022/06/22 02:50:25;;;;;;;2.13;1.30;;;12.50;99.90;;;;;;4935127;29;20269;-90
2022/06/22 02:52:55;;;;;;;3.05;1.40;;;12.40;99.90;;;;;;4934247;29;20181;-89
2022/06/22 02:55:25;;;;;;;2.50;1.30;;;12.40;99.90;;;;;;4949507;28;20216;-89
2022/06/22 02:57:53;;;;;;;2.55;1.25;;;12.40;99.90;;;;;;4954100;28;20177;-89
2022/06/22 03:00:32;;;;;;;2.17;1.50;;;12.40;99.90;;;;;;4953834;29;20181;-89
2022/06/22 03:03:10;;;;;;;2.00;1.60;;;12.40;99.90;;;;;;4953316;28;20683;-90
2022/06/22 03:05:39;;;;;;;4.20;1.80;;;12.40;99.90;;;;;;4954221;28;20208;-89
2022/06/22 03:08:07;;;;;;;2.58;1.23;;;12.40;99.90;;;;;;4953752;28;20185;-90
2022/06/22 03:10:50;;;;;;;3.05;1.20;;;12.40;99.90;;;;;;4955121;28;20192;-89
2022/06/22 03:13:35;;;;;;;2.47;1.05;;;12.40;99.90;;;;;;4954170;28;20212;-91
2022/06/22 03:16:01;;;;;;;3.58;1.20;;;12.30;99.90;;;;;;4953847;28;20236;-89
2022/06/22 03:18:31;;;;;;;2.03;1.20;;;12.40;99.90;;;;;;4953720;28;20271;-89
2022/06/22 03:21:01;;;;;;;3.78;1.20;;;12.50;99.90;;;;;;4954015;29;20201;-90
2022/06/22 03:23:45;;;;;;;4.50;1.38;;;12.60;99.90;;;;;;4954318;29;20172;-91
2022/06/22 03:26:33;;;;;;;4.72;1.10;;;12.60;99.90;;;;;;4953817;28;20220;-89
2022/06/22 03:29:40;;;;;;;1.63;1.30;;;12.60;99.90;;;;;;4953818;28;20189;-89
2022/06/22 03:32:26;;;;;;;1.95;1.15;;;12.60;99.90;;;;;;4948997;28;20185;-90
2022/06/22 03:35:06;;;;;;;2.70;1.58;;;12.50;99.90;;;;;;4953337;28;20224;-90
2022/06/22 03:38:01;;;;;;;1.50;1.40;;;12.40;99.90;;;;;;4953498;29;20176;-89
2022/06/22 03:40:40;;;;;;;3.08;1.48;;;12.10;99.90;;;;;;4952109;29;20280;-91
2022/06/22 03:43:21;;;;;;;2.90;1.30;;;12.10;99.90;;;;;;4953307;29;20377;-90
2022/06/22 03:45:51;;;;;;;2.03;0.98;;;12.10;99.90;;;;;;4953253;28;20205;-90
2022/06/22 03:48:27;;;;;;;3.92;1.23;;;12.20;99.90;;;;;;4953215;29;20331;-90
2022/06/22 03:51:10;;;;;;;4.97;1.50;;;12.30;99.90;;;;;;4953257;29;20184;-90
2022/06/22 03:53:58;;;;;;;2.33;1.20;;;12.40;99.90;;;;;;4953161;29;20219;-89
2022/06/22 03:56:31;;;;;;;5.30;1.30;;;12.40;99.90;;;;;;4953117;28;20217;-89
2022/06/22 03:59:00;;;;;;;6.15;1.73;;;12.40;99.90;;;;;;4953267;28;20256;-91
2022/06/22 04:01:27;;;;;;;4.03;2.00;;;12.50;99.90;;;;;;4953180;29;20538;-88
2022/06/22 04:03:55;;;;;;;4.43;2.25;;;12.40;99.90;;;;;;4952935;28;20188;-89
2022/06/22 04:06:48;;;;;;;3.03;2.00;;;12.40;99.90;;;;;;4956759;28;20209;-90
2022/06/22 04:09:18;;;;;;;2.53;1.90;;;12.60;99.90;;;;;;4955057;29;20270;-89
2022/06/22 04:12:08;;;;;;;4.07;1.95;;;12.60;99.90;;;;;;4958119;28;20626;-90
2022/06/22 04:14:44;;;;;;;2.92;2.03;;;12.60;99.90;;;;;;4957706;28;20193;-90
2022/06/22 04:17:23;;;;;;;4.22;2.10;;;12.60;99.90;;;;;;4956524;28;20228;-90
2022/06/22 04:20:15;;;;;;;4.85;2.20;;;12.60;99.90;;;;;;4956108;29;20235;-90
2022/06/22 04:22:43;;;;;;;5.93;2.20;;;12.70;99.90;;;;;;4956997;29;20190;-90
2022/06/22 04:25:37;;;;;;;3.53;2.42;;;12.60;99.90;;;;;;4957878;28;20271;-90
2022/06/22 04:28:09;;;;;;;4.72;2.72;;;12.60;99.90;;;;;;4955615;29;20676;-89
2022/06/22 04:30:41;;;;;;;5.55;2.83;;;12.60;99.90;;;;;;4972791;28;20260;-91
2022/06/22 04:33:19;;;;;;;5.10;2.80;;;12.70;99.90;;;;;;4956469;29;20209;-88
2022/06/22 04:36:00;;;;;;;8.05;2.97;;;12.80;99.90;;;;;;4956164;28;20196;-90
2022/06/22 04:38:44;;;;;;;4.05;2.40;;;12.90;99.90;;;;;;4956511;29;20204;-90
2022/06/22 04:41:16;;;;;;;9.98;3.05;;;13.00;99.90;;;;;;4956262;29;20224;-90
2022/06/22 04:43:42;;;;;;;4.95;3.10;;;13.10;99.90;;;;;;4956270;28;20177;-90
2022/06/22 04:46:12;;;;;;;5.25;2.90;;;13.20;99.90;;;;;;4956133;28;20292;-89
2022/06/22 04:48:46;;;;;;;4.22;3.10;;;13.40;99.90;;;;;;4955789;29;20256;-90
2022/06/22 04:51:28;;;;;;;7.18;3.03;;;13.50;99.90;;;;;;4956065;28;20177;-89
2022/06/22 04:54:18;;;;;;;8.02;3.63;;;13.70;99.90;;;;;;4955716;28;20200;-89
2022/06/22 04:56:50;;;;;;;8.82;3.17;;;13.70;99.90;;;;;;4937056;29;20201;-90
2022/06/22 04:59:17;;;;;;;5.72;3.35;;;13.80;99.90;;;;;;4936740;29;20172;-90
2022/06/22 05:01:56;;;;;;;6.78;3.47;;;13.90;99.90;;;;;;4936638;29;20174;-90
2022/06/22 05:04:30;;;;;;;4.60;3.13;;;14.00;99.90;;;;;;4937168;29;20163;-90
2022/06/22 05:06:56;;;;;;;5.72;3.58;;;14.10;99.90;;;;;;4939328;29;20229;-91
2022/06/22 05:09:40;;;;;;;7.03;3.42;;;14.10;99.90;;;;;;4955793;28;20216;-89
2022/06/22 05:12:13;;;;;;;4.68;2.90;;;14.10;99.90;;;;;;4956035;28;20176;-90
2022/06/22 05:14:39;;;;;;;7.47;3.70;;;14.20;99.90;;;;;;4955536;28;20233;-91
2022/06/22 05:17:15;;;;;;;5.57;3.58;;;14.30;99.90;;;;;;4955156;28;20224;-90
2022/06/22 05:20:10;;;;;;;5.70;3.47;;;14.30;99.90;;;;;;4955399;28;20256;-91
2022/06/22 05:22:36;;;;;;;4.38;3.20;;;14.30;99.90;;;;;;4955500;29;20224;-90
2022/06/22 05:25:05;;;;;;;8.45;4.03;;;14.40;99.90;;;;;;4955466;28;20181;-90
2022/06/22 05:27:42;;;;;;;5.95;3.70;;;14.40;99.90;;;;;;4955569;28;20182;-91
2022/06/22 05:30:10;;;;;;;5.82;3.75;;;14.50;99.90;;;;;;4955251;28;20708;-89
2022/06/22 05:33:00;;;;;;;4.35;3.38;;;14.60;99.90;;;;;;4955607;28;20657;-89
2022/06/22 05:35:35;;;;;;;6.53;4.03;;;14.60;99.90;;;;;;4954913;28;20213;-90
2022/06/22 05:38:02;;;;;;;5.28;3.17;;;14.60;99.90;;;;;;4955873;29;20188;-90
2022/06/22 05:40:31;;;;;;;6.43;3.15;;;14.60;99.90;;;;;;4955479;29;20208;-90
2022/06/22 05:42:57;;;;;;;7.50;3.97;;;14.70;99.90;;;;;;4955653;29;20192;-89
2022/06/22 05:45:27;;;;;;;5.82;4.47;;;14.70;99.90;;;;;;4954683;28;20209;-91
2022/06/22 05:47:55;;;;;;;6.25;4.10;;;14.70;99.90;;;;;;4955074;28;20228;-91
2022/06/22 05:51:02;;;;;;;6.55;4.88;;;14.70;99.90;;;;;;4955127;28;20189;-89
2022/06/22 05:53:32;;;;;;;7.40;4.88;;;14.80;99.90;;;;;;4919268;29;20213;-91
2022/06/22 05:56:04;;;;;;;7.15;4.50;;;14.80;99.90;;;;;;4949669;28;20209;-90
2022/06/22 05:58:46;;;;;;;6.93;3.90;;;14.90;99.90;;;;;;4955020;28;20165;-90
2022/06/22 06:01:32;;;;;;;7.57;4.72;;;15.00;99.90;;;;;;4954971;28;20161;-90
2022/06/22 06:04:26;;;;;;;6.22;5.15;;;15.00;99.90;;;;;;4956133;28;20163;-90
2022/06/22 06:06:54;;;;;;;9.85;4.70;;;15.10;99.90;;;;;;4955061;28;20699;-91
2022/06/22 06:09:23;;;;;;;6.95;5.00;;;15.20;99.90;;;;;;4954706;28;20177;-91
2022/06/22 06:11:58;;;;;;;8.90;4.63;;;15.20;99.90;;;;;;4955109;28;20173;-91
2022/06/22 06:14:30;;;;;;;9.40;4.82;;;15.30;99.90;;;;;;4954838;29;20203;-91
2022/06/22 06:17:01;;;;;;;6.93;4.70;;;15.30;99.90;;;;;;4954276;28;20288;-92
2022/06/22 06:19:33;;;;;;;5.88;4.57;;;15.30;99.90;;;;;;4954455;28;20192;-91
2022/06/22 06:22:02;;;;;;;10.98;5.18;;;15.40;99.90;;;;;;4954341;28;20201;-91
2022/06/22 06:27:42;;;;;;;7.72;4.78;;;15.50;99.90;;;;;;4955271;28;20240;-91
2022/06/22 06:30:36;;;;;;;5.30;3.92;;;15.60;99.90;;;;;;4954652;29;20165;-92
2022/06/22 06:33:10;;;;;;;6.45;4.25;;;15.70;99.90;;;;;;4954569;29;20633;-91
2022/06/22 06:35:47;;;;;;;9.32;4.03;;;15.80;99.90;;;;;;4954572;28;20224;-92
2022/06/22 06:38:31;;;;;;;4.30;3.53;;;16.00;99.90;;;;;;4954540;29;20658;-92
2022/06/22 06:41:24;;;;;;;5.72;3.10;;;16.20;99.90;;;;;;4954418;29;20182;-92
2022/06/22 06:43:59;;;;;;;6.00;3.20;;;16.30;99.90;;;;;;4954456;29;20169;-92
2022/06/22 06:46:27;;;;;;;5.10;3.25;;;16.40;99.90;;;;;;4954053;28;20560;-91
2022/06/22 06:49:02;;;;;;;4.55;3.35;;;16.60;99.90;;;;;;4953682;28;20236;-92
2022/06/22 06:51:31;;;;;;;4.53;3.65;;;16.70;99.90;;;;;;4953996;28;20185;-91
2022/06/22 06:54:29;;;;;;;5.10;3.35;;;16.90;99.90;;;;;;4954523;28;20680;-90
2022/06/22 06:57:19;;;;;;;8.27;3.35;;;17.00;99.90;;;;;;4952666;28;20201;-91
2022/06/22 06:59:50;;;;;;;5.30;3.10;;;17.20;99.90;;;;;;4953996;28;20643;-91
2022/06/22 07:02:19;;;;;;;6.25;3.47;;;17.40;99.90;;;;;;4954259;28;20521;-92
2022/06/22 07:04:46;;;;;;;5.13;2.85;;;17.50;99.90;;;;;;4952641;28;20173;-91
2022/06/22 07:07:17;;;;;;;6.45;3.35;;;17.70;99.90;;;;;;4952664;28;20340;-92
2022/06/22 07:09:45;;;;;;;10.02;2.78;;;17.90;99.90;;;;;;4953631;29;20188;-91
2022/06/22 07:12:26;;;;;;;3.63;2.60;;;18.10;99.90;;;;;;4953551;28;20590;-91
2022/06/22 07:14:52;;;;;;;8.30;2.05;;;18.30;99.90;;;;;;4933989;29;20205;-91
2022/06/22 07:17:21;;;;;;;6.75;2.78;;;18.50;99.90;;;;;;4934382;29;20174;-91
2022/06/22 07:19:55;;;;;;;5.85;2.78;;;18.60;99.90;;;;;;4951474;29;20275;-90
2022/06/22 07:22:37;;;;;;;2.97;2.42;;;18.70;99.90;;;;;;4953458;28;20173;-92
2022/06/22 07:25:21;;;;;;;4.72;2.58;;;18.90;99.90;;;;;;4953401;28;20197;-91
2022/06/22 07:27:53;;;;;;;4.13;2.67;;;19.10;99.90;;;;;;4953716;28;20221;-92
2022/06/22 07:30:29;;;;;;;4.00;2.38;;;19.40;99.90;;;;;;4954292;29;20169;-93
2022/06/22 07:33:21;;;;;;;6.32;2.80;;;19.50;99.90;;;;;;4953873;28;20177;-91
2022/06/22 07:36:09;;;;;;;5.90;2.50;;;19.70;99.90;;;;;;4935844;28;20263;-91
2022/06/22 07:38:58;;;;;;;4.22;2.17;;;19.90;99.90;;;;;;4948185;28;20239;-92
2022/06/22 07:41:25;;;;;;;3.95;2.10;;;20.10;99.90;;;;;;4957801;29;20261;-91
2022/06/22 07:44:00;;;;;;;5.97;2.40;;;20.30;99.90;;;;;;4957328;28;20173;-91
2022/06/22 07:46:32;;;;;;;5.55;2.28;;;20.30;99.40;;;;;;4957588;28;20212;-92
2022/06/22 07:49:20;;;;;;;4.18;2.40;;;20.40;99.90;;;;;;4957242;29;20241;-91
2022/06/22 07:51:55;;;;;;;5.80;2.40;;;20.50;98.80;;;;;;4957115;29;20653;-92
2022/06/22 07:54:53;;;;;;;4.88;2.15;;;20.50;98.40;;;;;;4956752;29;20307;-91
2022/06/22 07:57:58;;;;;;;6.22;2.38;;;20.50;99.40;;;;;;4953860;29;20193;-93
2022/06/22 08:00:25;;;;;;;3.45;1.88;;;20.70;99.90;;;;;;4957138;29;20183;-94
2022/06/22 08:03:03;;;;;;;4.20;2.10;;;20.80;98.10;;;;;;4957040;29;20224;-92
2022/06/22 08:05:34;;;;;;;5.22;2.03;;;20.80;97.40;;;;;;4956590;28;20201;-92
2022/06/22 08:08:13;;;;;;;6.15;2.40;;;20.80;97.70;;;;;;4957416;29;20205;-92
2022/06/22 08:10:41;;;;;;;4.15;2.10;;;21.10;98.80;;;;;;4957630;29;20224;-92
2022/06/22 08:13:20;;;;;;;4.40;2.10;;;21.30;98.70;;;;;;4957268;28;20225;-91
2022/06/22 08:16:11;;;;;;;7.97;2.88;;;21.40;96.80;;;;;;4956725;28;20229;-92
2022/06/22 08:18:43;;;;;;;5.50;2.10;;;21.50;97.60;;;;;;4956968;29;20272;-91
2022/06/22 08:21:14;;;;;;;4.40;1.70;;;21.60;97.10;;;;;;4956735;28;20196;-92
2022/06/22 08:23:41;;;;;;;3.80;1.83;;;21.80;97.90;;;;;;4956770;29;20690;-91
2022/06/22 08:26:15;;;;;;;5.15;1.88;;;21.90;96.30;;;;;;4956594;28;20216;-90
2022/06/22 08:28:41;;;;;;;3.45;1.80;;;21.90;96.10;;;;;;4957739;28;20263;-90
2022/06/22 08:31:08;;;;;;;2.33;1.77;;;22.00;96.70;;;;;;4956959;28;20205;-91
2022/06/22 08:33:45;;;;;;;2.60;1.80;;;22.00;96.50;;;;;;4957110;28;20688;-92
2022/06/22 08:36:18;;;;;;;9.07;2.20;;;22.10;96.20;;;;;;4956499;28;20205;-90
2022/06/22 08:39:23;;;;;;;6.13;2.10;;;22.30;95.90;;;;;;4956343;28;20170;-91
2022/06/22 08:42:04;;;;;;;3.72;1.70;;;22.30;95.70;;;;;;4956043;29;20208;-93
2022/06/22 08:45:07;;;;;;;3.00;1.63;;;22.40;95.70;;;;;;4956159;28;20177;-92
2022/06/22 08:48:04;;;;;;;5.03;1.95;;;22.60;95.70;;;;;;4956418;28;20177;-92
2022/06/22 08:50:45;;;;;;;4.32;1.58;;;22.80;93.80;;;;;;4937136;29;20174;-91
2022/06/22 08:53:22;;;;;;;3.42;1.35;;;22.80;94.00;;;;;;4937150;29;20202;-92
2022/06/22 08:55:55;;;;;;;4.97;1.30;;;22.80;94.10;;;;;;4951331;28;20212;-91
2022/06/22 08:58:56;;;;;;;4.38;1.38;;;22.90;92.30;;;;;;4955657;29;20178;-92
2022/06/22 09:01:44;;;;;;;4.35;1.35;;;23.00;91.10;;;;;;4953243;29;20224;-92
2022/06/22 09:04:51;;;;;;;2.28;1.05;;;23.00;91.00;;;;;;4955598;28;20184;-90
2022/06/22 09:07:35;;;;;;;3.42;1.25;;;23.10;91.50;;;;;;4952089;29;20247;-90
2022/06/22 09:10:23;;;;;;;3.95;1.23;;;23.20;90.10;;;;;;4955662;28;20173;-91
2022/06/22 09:12:58;;;;;;;4.00;1.25;;;23.30;90.50;;;;;;4955912;28;20266;-90
2022/06/22 09:15:47;;;;;;;2.70;1.27;;;23.30;90.00;;;;;;4955297;28;20700;-91
2022/06/22 09:18:29;;;;;;;3.25;1.15;;;23.30;89.30;;;;;;4955565;28;20166;-91
2022/06/22 09:21:11;;;;;;;2.88;1.10;;;23.50;90.60;;;;;;4955335;28;20181;-91
2022/06/22 09:23:43;;;;;;;4.32;1.23;;;23.60;90.60;;;;;;4955340;28;20165;-90
2022/06/22 09:26:35;;;;;;;4.95;1.15;;;23.80;89.00;;;;;;4955222;28;20332;-91
2022/06/22 09:29:08;;;;;;;6.57;1.50;;;23.90;89.20;;;;;;4956386;28;20169;-91
2022/06/22 09:31:55;;;;;;;2.58;1.15;;;23.90;89.80;;;;;;4954656;29;20283;-91
2022/06/22 09:34:58;;;;;;;3.80;1.00;;;23.90;87.00;;;;;;4956312;28;20206;-91
2022/06/22 09:38:01;;;;;;;3.38;1.23;;;23.80;84.60;;;;;;4955225;28;20264;-91
2022/06/22 09:40:46;;;;;;;4.45;1.10;;;23.80;86.00;;;;;;4955441;28;20173;-90
2022/06/22 09:43:40;;;;;;;5.15;1.20;;;23.70;89.00;;;;;;4955052;28;20181;-91
2022/06/22 09:46:49;;;;;;;5.05;1.10;;;23.80;87.80;;;;;;4955550;28;20197;-92
2022/06/22 09:49:37;;;;;;;3.08;1.27;;;24.10;87.30;;;;;;4955096;28;20588;-90
2022/06/22 09:52:24;;;;;;;5.25;1.10;;;24.20;87.60;;;;;;4955395;28;20181;-92
2022/06/22 09:58:51;;;;;;;3.50;1.08;;;24.30;87.60;;;;;;4955747;29;20197;-90
2022/06/22 10:02:06;;;;;;;4.53;1.05;;;24.40;83.20;;;;;;4946363;29;20269;-91
2022/06/22 10:05:05;;;;;;;3.47;1.10;;;24.10;80.90;;;;;;4949950;29;20193;-91
2022/06/22 10:07:53;;;;;;;1.80;0.90;;;24.40;83.50;;;;;;4954538;29;20188;-90
2022/06/22 10:10:47;;;;;;;5.88;1.20;;;24.50;84.10;;;;;;4954801;29;20792;-89
2022/06/22 10:13:41;;;;;;;2.42;0.90;;;24.60;81.60;;;;;;4956334;28;22068;-89
2022/06/22 10:16:39;;;;;;;2.22;1.38;;;24.60;84.70;;;;;;4954888;28;20247;-91
2022/06/22 10:19:29;;;;;;;5.70;1.30;;;24.70;81.80;;;;;;4955109;28;20170;-90
2022/06/22 10:22:33;;;;;;;3.50;1.10;;;24.60;81.80;;;;;;4954481;28;20278;-90
2022/06/22 10:25:39;;;;;;;2.92;1.10;;;24.60;79.60;;;;;;4954196;28;20287;-90
2022/06/22 10:28:31;;;;;;;3.45;1.20;;;24.60;77.40;;;;;;4954199;29;20177;-91
2022/06/22 10:31:14;;;;;;;3.33;0.95;;;24.60;77.00;;;;;;4954300;29;20240;-90
2022/06/22 10:34:17;;;;;;;2.08;0.85;;;24.80;79.20;;;;;;4954166;29;20228;-91
2022/06/22 10:37:24;;;;;;;2.10;1.00;;;25.00;80.60;;;;;;4953978;28;20733;-93
2022/06/22 10:46:26;;;;;;;3.88;1.10;;;25.50;77.90;;;;;;4934031;29;20652;-91
2022/06/22 10:49:04;;;;;;;4.13;1.20;;;25.10;78.00;;;;;;4952923;28;20264;-91
2022/06/22 10:51:40;;;;;;;2.80;0.98;;;25.20;80.00;;;;;;4953840;29;20664;-91
2022/06/22 10:54:28;;;;;;;2.92;1.35;;;25.20;81.80;;;;;;4953604;29;20646;-91
2022/06/22 10:57:07;;;;;;;4.70;1.10;;;25.40;83.50;;;;;;4954286;28;20208;-91
2022/06/22 10:59:54;;;;;;;2.25;1.00;;;25.50;80.40;;;;;;4955360;29;20172;-90
2022/06/22 11:02:58;;;;;;;2.28;1.02;;;25.70;80.20;;;;;;4954065;29;20594;-92
2022/06/22 11:05:52;;;;;;;4.07;1.27;;;25.90;79.80;;;;;;4934747;29;20205;-91
2022/06/22 11:08:39;;;;;;;4.68;1.15;;;25.80;77.20;;;;;;4934405;29;20181;-90
2022/06/22 11:11:42;;;;;;;2.28;1.00;;;25.70;80.00;;;;;;4936500;29;20201;-91
2022/06/22 11:14:08;;;;;;;4.95;1.17;;;25.80;78.70;;;;;;4934166;29;20205;-92
2022/06/22 11:16:49;;;;;;;3.35;0.85;;;25.90;79.10;;;;;;4943691;29;20204;-92
2022/06/22 11:19:18;;;;;;;2.60;1.15;;;25.90;75.90;;;;;;4954311;29;20205;-91
2022/06/22 11:22:14;;;;;;;1.38;0.80;;;25.80;80.10;;;;;;4955253;28;20162;-91
2022/06/22 11:24:53;;;;;;;2.10;0.90;;;25.90;77.10;;;;;;4953907;28;20185;-91
2022/06/22 11:30:48;;;;;;;3.63;1.00;;;26.20;76.30;;;;;;4955161;29;20599;-90
2022/06/22 11:33:14;;;;;;;3.25;1.20;;;26.40;79.10;;;;;;4953922;28;20195;-91
2022/06/22 11:35:52;;;;;;;3.63;1.17;;;26.50;74.20;;;;;;4953452;28;20668;-90
2022/06/22 11:38:37;;;;;;;2.22;1.10;;;26.60;77.50;;;;;;4953786;29;20177;-91
2022/06/22 11:41:14;;;;;;;2.72;1.10;;;26.70;79.00;;;;;;4953683;28;20201;-91
2022/06/22 11:43:54;;;;;;;2.15;0.98;;;26.70;78.80;;;;;;4953788;28;20232;-91
2022/06/22 11:46:52;;;;;;;4.50;0.93;;;26.70;75.20;;;;;;4953672;28;20219;-89
2022/06/22 11:49:20;;;;;;;2.28;1.17;;;26.70;72.90;;;;;;4945193;29;20601;-90
2022/06/22 11:52:20;;;;;;;1.90;1.10;;;26.70;77.30;;;;;;4953260;29;20177;-91
2022/06/22 11:54:59;;;;;;;1.85;1.02;;;26.80;76.60;;;;;;4953935;29;20212;-91
2022/06/22 11:57:58;;;;;;;4.07;0.90;;;26.90;76.40;;;;;;4954756;28;20213;-90
2022/06/22 12:00:43;;;;;;;3.85;1.10;;;27.10;77.00;;;;;;4953622;29;20170;-91
2022/06/22 12:03:28;;;;;;;4.03;1.20;;;27.20;76.40;;;;;;4934422;29;20213;-89
2022/06/22 12:06:07;;;;;;;1.40;0.82;;;27.20;76.10;;;;;;4934426;29;20629;-92
2022/06/22 12:09:01;;;;;;;3.35;1.10;;;27.40;77.50;;;;;;4934516;29;20224;-92
2022/06/22 12:12:05;;;;;;;2.80;1.20;;;27.50;75.80;;;;;;4935358;29;20163;-90
2022/06/22 12:15:05;;;;;;;1.48;0.95;;;27.60;76.40;;;;;;4933076;29;20236;-91
2022/06/22 12:17:40;;;;;;;4.50;1.20;;;27.70;74.60;;;;;;4934009;29;20178;-91
2022/06/22 12:20:09;;;;;;;2.08;1.10;;;27.50;72.70;;;;;;4934011;29;20192;-90
2022/06/22 12:23:05;;;;;;;3.75;1.00;;;27.40;74.20;;;;;;4934087;29;20285;-92
2022/06/22 12:26:12;;;;;;;2.50;1.50;;;27.30;74.30;;;;;;4947583;28;20205;-91
2022/06/22 12:28:55;;;;;;;2.28;1.08;;;27.40;73.50;;;;;;4956711;29;20189;-91
2022/06/22 12:31:23;;;;;;;4.00;1.17;;;27.60;75.40;;;;;;4956755;29;20204;-92
2022/06/22 12:33:59;;;;;;;3.38;1.20;;;27.70;76.90;;;;;;4956439;28;20283;-91
2022/06/22 12:36:57;;;;;;;2.90;1.17;;;27.70;74.10;;;;;;4956992;28;20199;-91
2022/06/22 12:39:32;;;;;;;5.13;1.15;;;27.30;69.70;;;;;;4948162;29;20196;-90
2022/06/22 12:42:03;;;;;;;3.75;1.00;;;27.10;70.80;;;;;;4956823;29;20180;-93
2022/06/22 12:45:14;;;;;;;2.35;1.10;;;27.10;72.60;;;;;;4955947;29;20189;-90
2022/06/22 12:47:55;;;;;;;3.10;1.13;;;27.20;73.90;;;;;;4956082;29;20176;-91
2022/06/22 12:51:07;;;;;;;6.00;1.33;;;27.30;72.70;;;;;;4955740;28;20197;-92
2022/06/22 12:53:37;;;;;;;2.60;0.82;;;27.40;71.70;;;;;;4926027;29;20215;-91
2022/06/22 12:56:28;;;;;;;2.30;1.20;;;27.40;71.90;;;;;;4955870;28;20201;-91
2022/06/22 12:59:04;;;;;;;2.40;0.95;;;27.60;72.80;;;;;;4956270;29;20173;-90
2022/06/22 13:01:30;;;;;;;1.70;0.90;;;27.70;71.70;;;;;;4955897;28;20200;-90
2022/06/22 13:04:24;;;;;;;2.78;1.00;;;27.80;70.50;;;;;;4965596;28;20180;-90
2022/06/22 13:06:55;;;;;;;7.05;1.10;;;27.80;71.20;;;;;;4969530;28;20681;-90
2022/06/22 13:09:22;;;;;;;3.55;1.17;;;27.80;72.90;;;;;;4955297;28;20189;-90
2022/06/22 13:11:49;;;;;;;3.25;1.00;;;27.80;72.60;;;;;;4955870;28;20212;-90
2022/06/22 13:14:21;;;;;;;3.13;1.25;;;28.00;72.40;;;;;;4955417;28;20228;-90
2022/06/22 13:17:16;;;;;;;2.08;0.93;;;28.20;70.10;;;;;;4956083;28;20193;-91
2022/06/22 13:20:18;;;;;;;2.08;1.00;;;28.10;71.10;;;;;;4955972;28;20181;-92
2022/06/22 13:22:56;;;;;;;2.67;0.98;;;28.30;70.10;;;;;;4956230;29;20212;-92
2022/06/22 13:25:31;;;;;;;3.72;1.00;;;28.30;72.50;;;;;;4955495;28;20703;-91
2022/06/22 13:28:25;;;;;;;2.75;0.98;;;28.50;73.50;;;;;;4955690;29;20534;-90
2022/06/22 13:31:03;;;;;;;1.05;0.85;;;28.60;67.60;;;;;;4924181;29;20224;-91
2022/06/22 13:33:44;;;;;;;2.35;0.95;;;28.50;67.70;;;;;;4955136;28;20259;-90
2022/06/22 13:36:31;;;;;;;3.17;1.05;;;28.50;70.10;;;;;;4936380;29;20201;-90
2022/06/22 13:39:18;;;;;;;2.13;0.90;;;28.60;67.00;;;;;;4936024;29;20173;-90
2022/06/22 13:41:46;;;;;;;1.73;0.95;;;28.50;69.70;;;;;;4937367;29;20648;-92
2022/06/22 13:44:36;;;;;;;2.53;1.35;;;28.50;67.50;;;;;;4936104;29;20541;-90
2022/06/22 13:47:27;;;;;;;3.08;1.20;;;28.60;68.90;;;;;;4936064;29;20202;-91
2022/06/22 13:53:53;;;;;;;1.52;0.95;;;28.80;66.90;;;;;;4932468;29;20555;-91
2022/06/22 13:56:56;;;;;;;1.75;0.93;;;28.60;66.70;;;;;;4954691;28;20251;-92
2022/06/22 13:59:37;;;;;;;2.15;0.93;;;28.80;69.90;;;;;;4955143;28;20268;-91
2022/06/22 14:02:25;;;;;;;2.03;0.98;;;28.80;67.70;;;;;;4954627;28;20165;-90
2022/06/22 14:05:00;;;;;;;1.92;1.10;;;28.80;65.30;;;;;;4954946;28;20201;-92
2022/06/22 14:07:48;;;;;;;2.53;0.98;;;28.80;68.50;;;;;;4954870;29;20736;-90
2022/06/22 14:10:45;;;;;;;1.70;1.00;;;28.70;65.90;;;;;;4954385;29;20197;-90
2022/06/22 14:13:25;;;;;;;2.47;1.00;;;28.30;65.60;;;;;;4955141;29;20320;-91
2022/06/22 14:16:08;;;;;;;3.67;0.98;;;28.40;66.80;;;;;;4954235;28;20196;-91
2022/06/22 14:18:40;;;;;;;1.45;0.80;;;28.20;65.70;;;;;;4954385;28;20529;-92
2022/06/22 14:21:22;;;;;;;5.43;0.90;;;28.40;65.50;;;;;;4955729;28;20180;-91
2022/06/22 14:23:49;;;;;;;1.90;0.85;;;28.40;65.10;;;;;;4953763;28;20177;-91
2022/06/22 14:26:32;;;;;;;6.20;1.20;;;28.50;64.40;;;;;;4953266;28;20673;-92